Time;durP1;ratioP1;P1;durP2;ratioP2;P2;SDS_P1;SDS_P2;PMS_P1;PMS_P2;Temp;Humidity;BMP_temperature;BMP_pressure;BME280_temperature;BME280_humidity;BME280_pressure;Samples;Min_cycle;Max_cycle;Signal;HPM_P1;HPM_P2
2023/12/16 00:00:15;;;;;;;17.52;9.73;;;;;;;6.96;84.17;102273.44;5051172;28;20397;-82
2023/12/16 00:02:41;;;;;;;16.10;8.13;;;;;;;6.94;84.30;102272.47;5051294;28;20489;-82
2023/12/16 00:05:08;;;;;;;13.70;7.13;;;;;;;6.95;83.80;102270.78;5051307;28;20104;-82
2023/12/16 00:07:34;;;;;;;17.20;7.85;;;;;;;6.96;84.15;102283.91;5051132;28;20037;-79
2023/12/16 00:09:59;;;;;;;14.10;6.63;;;;;;;6.96;83.55;102288.28;5051277;28;20021;-79
2023/12/16 00:12:25;;;;;;;12.87;6.73;;;;;;;6.98;83.82;102284.00;5051220;28;20028;-83
2023/12/16 00:14:50;;;;;;;14.47;6.93;;;;;;;6.97;83.62;102290.06;5050999;28;20031;-82
2023/12/16 00:17:15;;;;;;;16.67;6.93;;;;;;;6.96;83.90;102283.03;5050828;28;20067;-84
2023/12/16 00:19:41;;;;;;;13.40;6.40;;;;;;;6.96;83.76;102283.91;5050806;28;20033;-80
2023/12/16 00:22:06;;;;;;;13.57;6.47;;;;;;;6.96;83.89;102283.91;5050927;28;20044;-80
2023/12/16 00:24:32;;;;;;;13.80;6.27;;;;;;;6.95;83.84;102291.72;5049930;28;20057;-79
2023/12/16 00:26:57;;;;;;;15.13;6.72;;;;;;;6.91;83.02;102284.56;5049340;28;20083;-82
2023/12/16 00:29:23;;;;;;;13.90;6.43;;;;;;;6.85;83.54;102280.84;5049592;28;20476;-80
2023/12/16 00:31:48;;;;;;;13.13;6.37;;;;;;;6.79;83.35;102280.56;5050848;28;20073;-82
2023/12/16 00:34:14;;;;;;;15.75;6.63;;;;;;;6.77;83.20;102276.13;5051145;28;20394;-80
2023/12/16 00:36:41;;;;;;;14.33;8.03;;;;;;;6.72;83.48;102273.28;5050653;28;20029;-79
2023/12/16 00:39:07;;;;;;;18.17;8.55;;;;;;;6.69;83.59;102279.25;5050410;28;20533;-79
2023/12/16 00:41:33;;;;;;;23.17;9.73;;;;;;;6.69;83.36;102283.63;5050329;28;20167;-83
2023/12/16 00:43:58;;;;;;;22.17;8.27;;;;;;;6.65;83.72;102284.31;5050395;28;20276;-80
2023/12/16 00:46:24;;;;;;;17.50;7.67;;;;;;;6.65;83.45;102285.19;5050708;28;20029;-79
2023/12/16 00:48:49;;;;;;;13.40;7.23;;;;;;;6.63;83.46;102294.72;5050494;28;20033;-81
2023/12/16 00:51:14;;;;;;;12.33;6.93;;;;;;;6.63;84.04;102280.72;5050478;28;20048;-80
2023/12/16 00:53:40;;;;;;;14.63;6.70;;;;;;;6.64;83.74;102285.16;5049981;28;20028;-79
2023/12/16 00:56:05;;;;;;;12.93;6.33;;;;;;;6.61;83.65;102275.41;5050410;28;20389;-78
2023/12/16 00:58:31;;;;;;;14.87;6.50;;;;;;;6.61;83.53;102271.06;5050070;28;20057;-79
2023/12/16 01:00:56;;;;;;;11.98;6.10;;;;;;;6.58;83.74;102270.94;5050294;28;20480;-82
2023/12/16 01:03:22;;;;;;;13.90;7.23;;;;;;;6.54;82.96;102268.13;5049946;28;20032;-79
2023/12/16 01:05:47;;;;;;;12.30;7.30;;;;;;;6.49;83.38;102265.28;5050045;28;20032;-78
2023/12/16 01:08:13;;;;;;;13.60;7.77;;;;;;;6.44;82.80;102261.56;5050090;28;20104;-81
2023/12/16 01:10:38;;;;;;;12.63;6.57;;;;;;;6.39;83.23;102252.59;5050000;28;20031;-80
2023/12/16 01:13:04;;;;;;;15.33;7.40;;;;;;;6.35;83.22;102251.59;5049871;28;20036;-81
2023/12/16 01:15:30;;;;;;;13.20;6.93;;;;;;;6.35;83.54;102250.69;5048618;28;20029;-80
2023/12/16 01:17:55;;;;;;;13.83;7.27;;;;;;;6.31;83.25;102255.78;5049744;28;20489;-78
2023/12/16 01:20:20;;;;;;;13.40;7.10;;;;;;;6.29;83.46;102262.66;5050060;28;20025;-82
2023/12/16 01:22:46;;;;;;;12.00;6.38;;;;;;;6.26;83.58;102272.06;5049759;28;20025;-79
2023/12/16 01:25:11;;;;;;;11.03;5.47;;;;;;;6.22;83.55;102273.69;5048635;28;20025;-82
2023/12/16 01:27:37;;;;;;;14.57;6.00;;;;;;;6.18;83.80;102264.78;5049906;28;20025;-81
2023/12/16 01:30:03;;;;;;;11.80;5.60;;;;;;;6.18;83.66;102256.94;5049904;28;20086;-79
2023/12/16 01:32:29;;;;;;;12.80;6.18;;;;;;;6.17;83.11;102251.66;5050024;28;20355;-80
2023/12/16 01:34:55;;;;;;;11.88;5.40;;;;;;;6.17;82.90;102257.75;5049783;28;20111;-79
2023/12/16 01:37:20;;;;;;;12.10;6.00;;;;;;;6.14;82.86;102269.78;5049803;28;20100;-81
2023/12/16 01:39:46;;;;;;;13.30;6.40;;;;;;;6.10;82.64;102265.25;5049456;28;20036;-83
2023/12/16 01:42:11;;;;;;;12.60;6.07;;;;;;;6.08;83.45;102266.91;5049442;28;20029;-80
2023/12/16 01:44:36;;;;;;;12.57;6.00;;;;;;;6.06;83.59;102265.94;5049667;28;20058;-81
2023/12/16 01:47:02;;;;;;;14.83;6.17;;;;;;;6.05;83.41;102271.97;5049771;28;20052;-79
2023/12/16 01:49:28;;;;;;;13.52;6.25;;;;;;;6.02;82.89;102268.41;5049788;28;20501;-79
2023/12/16 01:51:53;;;;;;;12.27;6.17;;;;;;;5.98;83.20;102271.66;5049973;28;20594;-82
2023/12/16 01:54:20;;;;;;;11.73;5.93;;;;;;;5.98;83.12;102269.06;5049661;28;20025;-80
2023/12/16 01:56:55;;;;;;;12.55;6.50;;;;;;;5.99;83.65;102276.06;5049637;28;20477;-81
2023/12/16 01:59:21;;;;;;;10.02;5.13;;;;;;;5.98;83.34;102276.91;5049281;28;20033;-83
2023/12/16 02:01:46;;;;;;;10.05;5.25;;;;;;;5.97;83.65;102284.66;5049249;28;20040;-79
2023/12/16 02:04:13;;;;;;;10.73;5.27;;;;;;;5.94;83.94;102277.59;5049378;28;20111;-83
2023/12/16 02:06:39;;;;;;;13.48;5.50;;;;;;;5.92;83.51;102276.63;5052372;28;20025;-82
2023/12/16 02:09:06;;;;;;;10.05;5.22;;;;;;;5.92;82.70;102281.84;5053514;28;20033;-83
2023/12/16 02:11:31;;;;;;;13.60;5.87;;;;;;;5.92;82.95;102287.06;5053475;28;20036;-82
2023/12/16 02:13:57;;;;;;;10.63;5.88;;;;;;;5.89;82.82;102298.28;5053327;28;20428;-81
2023/12/16 02:16:22;;;;;;;9.53;5.13;;;;;;;5.85;82.94;102298.03;5054008;28;20573;-79
2023/12/16 02:18:49;;;;;;;11.77;5.80;;;;;;;5.83;83.91;102302.31;5053610;28;20025;-83
2023/12/16 02:21:14;;;;;;;10.82;5.25;;;;;;;5.80;83.46;102297.84;5053165;28;20485;-82
2023/12/16 02:23:41;;;;;;;12.47;5.33;;;;;;;5.78;83.14;102301.19;5052126;28;20136;-83
2023/12/16 02:26:07;;;;;;;10.27;5.28;;;;;;;5.76;83.50;102303.72;5052926;28;20486;-83
2023/12/16 02:28:32;;;;;;;11.93;5.07;;;;;;;5.78;83.71;102303.81;5053133;28;20048;-78
2023/12/16 02:30:57;;;;;;;11.83;5.90;;;;;;;5.80;83.86;102296.94;5053225;28;20108;-82
2023/12/16 02:33:23;;;;;;;12.35;5.78;;;;;;;5.80;83.72;102294.31;5053179;28;20033;-78
2023/12/16 02:35:48;;;;;;;13.93;6.50;;;;;;;5.79;82.98;102296.06;5052933;28;20037;-79
2023/12/16 02:38:13;;;;;;;13.83;5.63;;;;;;;5.80;83.50;102304.78;5052796;28;20031;-78
2023/12/16 02:40:42;;;;;;;12.63;5.77;;;;;;;5.80;84.05;102297.84;5052960;28;20032;-78
2023/12/16 02:43:08;;;;;;;11.43;5.93;;;;;;;5.82;83.55;102300.50;5052743;28;20029;-79
2023/12/16 02:45:34;;;;;;;13.05;5.75;;;;;;;5.84;83.01;102293.63;5052759;28;20035;-79
2023/12/16 02:48:02;;;;;;;13.73;5.60;;;;;;;5.81;83.57;102298.72;5053002;28;20033;-78
2023/12/16 02:50:27;;;;;;;10.45;5.32;;;;;;;5.81;83.30;102297.03;5051713;28;20064;-83
2023/12/16 02:52:52;;;;;;;12.90;5.60;;;;;;;5.83;84.28;102297.06;5052704;28;20108;-80
2023/12/16 02:55:18;;;;;;;9.87;5.10;;;;;;;5.84;84.50;102291.03;5052731;28;20466;-78
2023/12/16 02:57:44;;;;;;;10.07;5.18;;;;;;;5.86;84.29;102285.06;5052510;28;20065;-79
2023/12/16 03:00:10;;;;;;;7.47;4.00;;;;;;;5.88;84.09;102287.72;5052495;28;20401;-81
2023/12/16 03:02:36;;;;;;;11.77;5.53;;;;;;;5.91;83.72;102280.06;5052401;28;20070;-78
2023/12/16 03:05:02;;;;;;;12.63;5.40;;;;;;;5.92;84.04;102284.47;5052368;28;20037;-78
2023/12/16 03:07:27;;;;;;;11.53;5.03;;;;;;;5.93;84.51;102280.13;5052618;28;20033;-78
2023/12/16 03:09:52;;;;;;;11.00;4.85;;;;;;;5.94;83.64;102280.19;5052501;28;20060;-81
2023/12/16 03:12:18;;;;;;;10.30;5.20;;;;;;;5.95;84.15;102278.47;5052510;28;20053;-80
2023/12/16 03:14:43;;;;;;;9.53;4.97;;;;;;;5.95;83.54;102276.75;5052309;28;20025;-80
2023/12/16 03:17:09;;;;;;;9.30;4.83;;;;;;;5.95;83.41;102276.75;5050641;28;20104;-82
2023/12/16 03:19:34;;;;;;;10.70;5.18;;;;;;;5.95;83.61;102266.31;5052225;28;20025;-80
2023/12/16 03:22:00;;;;;;;12.53;5.40;;;;;;;5.93;84.07;102270.56;5051955;28;20064;-80
2023/12/16 03:24:25;;;;;;;9.70;4.70;;;;;;;5.92;83.60;102260.94;5051834;28;20044;-78
2023/12/16 03:26:51;;;;;;;12.07;5.60;;;;;;;5.92;83.52;102263.53;5051949;28;20136;-77
2023/12/16 03:29:16;;;;;;;10.70;4.43;;;;;;;5.93;84.30;102261.81;5051883;28;20271;-78
2023/12/16 03:31:41;;;;;;;9.63;4.73;;;;;;;5.93;83.71;102267.94;5052087;28;20029;-79
2023/12/16 03:34:07;;;;;;;10.00;4.37;;;;;;;5.92;83.61;102260.00;5052330;28;20141;-78
2023/12/16 03:36:32;;;;;;;9.87;4.70;;;;;;;5.85;83.59;102274.50;5051846;28;20067;-80
2023/12/16 03:38:58;;;;;;;11.98;4.70;;;;;;;5.83;83.90;102277.06;5052067;28;20489;-83
2023/12/16 03:41:23;;;;;;;8.83;3.90;;;;;;;5.83;83.70;102265.69;5051898;28;20025;-81
2023/12/16 03:43:48;;;;;;;9.37;4.53;;;;;;;5.80;83.71;102266.47;5051474;28;20071;-80
2023/12/16 03:46:14;;;;;;;11.63;4.30;;;;;;;5.78;83.46;102265.47;5051852;28;20025;-81
2023/12/16 03:48:39;;;;;;;8.73;4.40;;;;;;;5.74;83.64;102267.06;5051661;28;20099;-82
2023/12/16 03:51:05;;;;;;;8.27;4.40;;;;;;;5.69;84.13;102265.94;5051850;28;20774;-84
2023/12/16 03:53:30;;;;;;;9.17;4.50;;;;;;;5.64;83.37;102256.97;5051536;28;20056;-81
2023/12/16 03:55:55;;;;;;;8.13;4.30;;;;;;;5.60;83.80;102257.63;5051682;28;20032;-81
2023/12/16 03:58:21;;;;;;;8.83;3.90;;;;;;;5.56;83.66;102255.72;5051510;28;20469;-80
2023/12/16 04:00:46;;;;;;;9.82;4.50;;;;;;;5.51;83.96;102252.84;5051288;28;20504;-80
2023/12/16 04:03:11;;;;;;;8.67;4.13;;;;;;;5.45;83.70;102253.47;5051003;28;20041;-83
2023/12/16 04:05:37;;;;;;;10.13;4.30;;;;;;;5.41;83.57;102255.84;5050153;28;20013;-81
2023/12/16 04:08:03;;;;;;;7.90;4.00;;;;;;;5.39;83.54;102249.66;5051502;28;20040;-79
2023/12/16 04:10:29;;;;;;;9.77;4.47;;;;;;;5.37;83.63;102249.56;5051302;28;20037;-83
2023/12/16 04:12:54;;;;;;;12.03;4.80;;;;;;;5.35;84.12;102243.38;5050121;28;20044;-81
2023/12/16 04:15:20;;;;;;;9.15;3.80;;;;;;;5.31;83.48;102250.19;5051218;28;20027;-82
2023/12/16 04:17:45;;;;;;;8.67;3.57;;;;;;;5.30;83.83;102258.84;5049633;28;20039;-82
2023/12/16 04:20:11;;;;;;;9.93;4.13;;;;;;;5.31;83.81;102264.94;5051041;28;20079;-84
2023/12/16 04:22:37;;;;;;;7.10;3.60;;;;;;;5.29;83.39;102261.38;5050870;28;20112;-81
2023/12/16 04:25:09;;;;;;;7.60;3.50;;;;;;;5.26;84.08;102266.44;5050544;28;20029;-79
2023/12/16 04:27:35;;;;;;;8.93;4.30;;;;;;;5.22;83.54;102272.34;5050479;28;20037;-80
2023/12/16 04:30:00;;;;;;;8.65;3.50;;;;;;;5.17;83.81;102283.41;5050715;28;20428;-83
2023/12/16 04:32:26;;;;;;;9.00;4.23;;;;;;;5.13;83.14;102284.09;5050919;28;20040;-84
2023/12/16 04:34:51;;;;;;;10.40;4.07;;;;;;;5.11;83.13;102282.25;5049290;28;20039;-83
2023/12/16 04:37:16;;;;;;;7.73;3.50;;;;;;;5.05;83.07;102272.38;5050849;28;20079;-83
2023/12/16 04:39:42;;;;;;;7.15;3.55;;;;;;;5.03;83.28;102271.38;5050497;28;20025;-83
2023/12/16 04:42:09;;;;;;;6.73;3.43;;;;;;;4.99;83.08;102261.63;5049087;28;20036;-80
2023/12/16 04:44:36;;;;;;;7.75;3.38;;;;;;;4.97;83.12;102263.25;5050507;28;20535;-80
2023/12/16 04:47:02;;;;;;;6.97;3.17;;;;;;;4.92;83.17;102268.22;5050525;28;20051;-80
2023/12/16 04:49:27;;;;;;;6.77;3.10;;;;;;;4.86;83.03;102266.19;5050640;28;20029;-78
2023/12/16 04:51:53;;;;;;;6.63;3.33;;;;;;;4.81;83.54;102256.31;5050705;28;20021;-82
2023/12/16 04:54:18;;;;;;;6.60;3.00;;;;;;;4.77;82.83;102260.50;5050702;28;20163;-79
2023/12/16 04:56:44;;;;;;;8.83;3.70;;;;;;;4.74;82.87;102255.13;5050590;28;20443;-80
2023/12/16 04:59:09;;;;;;;7.27;3.30;;;;;;;4.71;83.26;102254.97;5050088;28;20485;-79
2023/12/16 05:01:34;;;;;;;8.17;3.07;;;;;;;4.69;83.12;102246.13;5050193;28;20036;-80
2023/12/16 05:04:00;;;;;;;10.18;3.17;;;;;;;4.67;83.55;102242.56;5050092;28;20116;-79
2023/12/16 05:06:25;;;;;;;8.13;3.80;;;;;;;4.63;82.82;102246.72;5050091;28;20024;-78
2023/12/16 05:08:51;;;;;;;8.57;3.53;;;;;;;4.58;82.67;102236.03;5050111;28;20059;-79
2023/12/16 05:11:16;;;;;;;7.37;3.23;;;;;;;4.54;83.10;102247.16;5050540;28;20081;-78
2023/12/16 05:13:42;;;;;;;10.65;3.97;;;;;;;4.53;83.01;102245.34;5049897;28;20039;-83
2023/12/16 05:16:08;;;;;;;7.13;3.80;;;;;;;4.48;83.09;102251.13;5050288;28;20481;-82
2023/12/16 05:18:34;;;;;;;9.60;4.05;;;;;;;4.45;83.07;102246.63;5049885;28;20029;-79
2023/12/16 05:20:59;;;;;;;8.80;3.77;;;;;;;4.39;82.71;102256.75;5049983;28;20056;-79
2023/12/16 05:23:24;;;;;;;9.97;3.77;;;;;;;4.34;82.93;102256.53;5049884;28;20385;-79
2023/12/16 05:25:50;;;;;;;9.90;4.40;;;;;;;4.29;82.40;102261.50;5049344;28;20120;-79
2023/12/16 05:28:15;;;;;;;9.35;4.78;;;;;;;4.22;83.12;102261.97;5049848;28;20040;-81
2023/12/16 05:30:40;;;;;;;10.87;5.10;;;;;;;4.16;83.06;102265.13;5049735;28;20226;-79
2023/12/16 05:33:06;;;;;;;9.33;4.30;;;;;;;4.12;83.26;102267.47;5049812;28;20469;-79
2023/12/16 05:35:31;;;;;;;8.10;3.90;;;;;;;4.13;83.08;102266.66;5049972;28;20083;-80
2023/12/16 05:37:57;;;;;;;9.43;3.70;;;;;;;4.15;83.35;102262.44;5049729;28;20028;-80
2023/12/16 05:40:23;;;;;;;8.27;4.30;;;;;;;4.16;82.88;102270.34;5049865;28;20511;-80
2023/12/16 05:42:48;;;;;;;15.23;8.23;;;;;;;4.17;83.33;102276.44;5049557;28;20412;-82
2023/12/16 05:45:14;;;;;;;20.40;10.07;;;;;;;4.18;82.97;102275.63;5049410;28;20443;-82
2023/12/16 05:47:39;;;;;;;15.40;7.73;;;;;;;4.17;83.12;102281.66;5050064;28;20083;-81
2023/12/16 05:50:05;;;;;;;13.40;6.63;;;;;;;4.17;82.61;102281.66;5049774;28;20065;-78
2023/12/16 05:52:31;;;;;;;13.43;6.38;;;;;;;4.17;82.51;102284.28;5049491;28;20507;-81
2023/12/16 05:54:57;;;;;;;13.13;5.72;;;;;;;4.15;82.76;102288.50;5049404;28;20071;-78
2023/12/16 05:57:22;;;;;;;9.87;5.10;;;;;;;4.13;82.67;102284.91;5048339;28;20124;-82
2023/12/16 05:59:47;;;;;;;14.02;5.13;;;;;;;4.10;81.97;102301.31;5049571;28;20032;-78
2023/12/16 06:02:13;;;;;;;10.47;4.13;;;;;;;4.07;82.37;102300.25;5049349;28;20037;-81
2023/12/16 06:04:38;;;;;;;9.17;4.47;;;;;;;4.04;82.72;102300.06;5049421;28;20018;-84
2023/12/16 06:07:04;;;;;;;9.90;4.77;;;;;;;4.03;82.81;102304.38;5049544;28;20495;-83
2023/12/16 06:09:29;;;;;;;8.70;4.72;;;;;;;4.00;82.50;102305.13;5049400;28;20025;-83
2023/12/16 06:11:57;;;;;;;9.50;4.57;;;;;;;3.93;82.43;102308.16;5049507;28;20064;-80
2023/12/16 06:14:23;;;;;;;10.52;4.90;;;;;;;3.90;82.50;102308.00;5049317;28;20116;-82
2023/12/16 06:16:48;;;;;;;10.23;4.77;;;;;;;3.85;82.34;102312.06;5049340;28;20116;-79
2023/12/16 06:19:14;;;;;;;10.47;4.70;;;;;;;3.82;82.61;102301.47;5049527;28;20032;-83
2023/12/16 06:21:39;;;;;;;10.03;4.57;;;;;;;3.77;82.00;102305.53;5048960;28;20075;-79
2023/12/16 06:24:05;;;;;;;12.00;4.90;;;;;;;3.76;82.50;102299.41;5048309;28;20212;-79
2023/12/16 06:26:31;;;;;;;8.57;4.80;;;;;;;3.75;82.54;102296.72;5048916;28;20037;-79
2023/12/16 06:28:56;;;;;;;11.13;4.70;;;;;;;3.72;82.30;102292.22;5049038;28;20029;-82
2023/12/16 06:31:22;;;;;;;10.70;4.87;;;;;;;3.69;82.53;102286.84;5049181;28;20297;-80
2023/12/16 06:33:47;;;;;;;10.90;5.10;;;;;;;3.67;82.20;102291.94;5049460;28;20029;-80
2023/12/16 06:36:13;;;;;;;9.73;4.70;;;;;;;3.66;82.26;102292.75;5049202;28;20060;-80
2023/12/16 06:38:38;;;;;;;11.00;4.97;;;;;;;3.65;82.23;102285.75;5049112;28;20044;-79
2023/12/16 06:41:04;;;;;;;11.48;4.78;;;;;;;3.65;82.43;102292.69;5049119;28;20664;-84
2023/12/16 06:43:30;;;;;;;12.10;4.80;;;;;;;3.64;82.14;102297.00;5048678;28;20401;-83
2023/12/16 06:45:55;;;;;;;11.88;5.07;;;;;;;3.64;82.49;102294.38;5048890;28;20029;-78
2023/12/16 06:48:21;;;;;;;10.13;4.80;;;;;;;3.66;82.41;102297.97;5049289;28;20029;-80
2023/12/16 06:50:49;;;;;;;9.98;5.10;;;;;;;3.67;82.19;102298.88;5048766;28;20021;-78
2023/12/16 06:53:14;;;;;;;8.88;4.60;;;;;;;3.64;82.15;102296.13;5052536;28;20112;-83
2023/12/16 06:55:40;;;;;;;9.87;4.77;;;;;;;3.60;82.35;102305.44;5052665;28;20116;-78
2023/12/16 06:58:05;;;;;;;10.07;4.47;;;;;;;3.57;82.53;102305.28;5052881;28;20029;-80
2023/12/16 07:00:30;;;;;;;9.67;4.40;;;;;;;3.56;82.14;102306.09;5052559;28;20029;-82
2023/12/16 07:02:56;;;;;;;7.97;4.13;;;;;;;3.55;82.16;102305.19;5052244;28;20044;-81
2023/12/16 07:05:21;;;;;;;7.65;4.10;;;;;;;3.52;82.26;102299.78;5052365;28;20029;-84
2023/12/16 07:07:47;;;;;;;8.63;4.20;;;;;;;3.52;82.20;102293.69;5050965;28;20029;-79
2023/12/16 07:10:13;;;;;;;8.25;4.28;;;;;;;3.50;81.99;102287.50;5052965;28;20457;-79
2023/12/16 07:12:38;;;;;;;11.20;5.03;;;;;;;3.47;81.90;102288.22;5052452;28;20500;-82
2023/12/16 07:15:04;;;;;;;11.23;5.37;;;;;;;3.44;82.01;102288.91;5052228;28;20104;-83
2023/12/16 07:17:30;;;;;;;11.82;5.65;;;;;;;3.44;82.08;102285.44;5052336;28;20111;-84
2023/12/16 07:19:56;;;;;;;9.68;5.25;;;;;;;3.42;81.89;102285.34;5052310;28;20036;-79
2023/12/16 07:22:21;;;;;;;11.30;5.70;;;;;;;3.39;82.23;102282.56;5051840;28;20055;-80
2023/12/16 07:24:47;;;;;;;16.30;6.60;;;;;;;3.39;81.96;102290.38;5051160;28;20029;-79
2023/12/16 07:27:12;;;;;;;12.50;6.43;;;;;;;3.39;82.19;102300.78;5052349;28;20319;-81
2023/12/16 07:29:37;;;;;;;12.13;6.30;;;;;;;3.39;81.83;102292.97;5052007;28;20352;-79
2023/12/16 07:32:03;;;;;;;15.00;6.83;;;;;;;3.39;82.14;102287.75;5052221;28;20112;-85
2023/12/16 07:34:29;;;;;;;14.30;6.38;;;;;;;3.39;82.04;102306.00;5051964;28;20016;-78
2023/12/16 07:36:54;;;;;;;14.67;6.43;;;;;;;3.39;82.15;102307.72;5050649;28;20032;-80
2023/12/16 07:39:20;;;;;;;14.18;6.40;;;;;;;3.39;82.10;102312.94;5051939;28;20106;-79
2023/12/16 07:41:46;;;;;;;13.33;6.80;;;;;;;3.40;81.93;102319.94;5051687;28;20544;-80
2023/12/16 07:44:11;;;;;;;14.18;6.40;;;;;;;3.41;81.96;102322.59;5051516;28;20025;-81
2023/12/16 07:46:39;;;;;;;15.37;6.70;;;;;;;3.42;81.85;102327.00;5051290;28;20135;-79
2023/12/16 07:49:05;;;;;;;14.90;6.72;;;;;;;3.41;81.50;102333.03;5051736;28;20029;-79
2023/12/16 07:51:30;;;;;;;14.90;6.40;;;;;;;3.42;81.80;102328.72;5051786;28;20058;-79
2023/12/16 07:53:55;;;;;;;16.33;7.00;;;;;;;3.42;81.65;102334.81;5051694;28;20024;-81
2023/12/16 07:56:28;;;;;;;12.43;6.63;;;;;;;3.41;81.62;102338.22;5051785;28;20036;-82
2023/12/16 07:58:55;;;;;;;14.55;6.40;;;;;;;3.42;81.69;102345.25;5051381;28;20036;-77
2023/12/16 08:01:21;;;;;;;11.88;6.30;;;;;;;3.54;81.96;102347.66;5051659;28;20159;-78
2023/12/16 08:03:47;;;;;;;14.48;6.97;;;;;;;3.71;81.50;102338.22;5048229;28;20137;-77
2023/12/16 08:06:17;;;;;;;18.03;7.77;;;;;;;3.92;81.46;102337.66;5050649;28;20052;-80
2023/12/16 08:08:43;;;;;;;14.85;7.45;;;;;;;4.10;80.58;102352.56;5050628;28;20116;-82
2023/12/16 08:11:09;;;;;;;15.75;7.40;;;;;;;4.28;79.89;102343.16;5050420;28;20029;-79
2023/12/16 08:13:36;;;;;;;16.70;8.50;;;;;;;4.38;79.14;102354.09;5050042;28;20029;-80
2023/12/16 08:16:02;;;;;;;18.25;8.82;;;;;;;4.50;79.83;102354.78;5050474;28;20033;-79
2023/12/16 08:18:28;;;;;;;15.87;8.37;;;;;;;4.65;79.41;102354.72;5050601;28;20055;-78
2023/12/16 08:20:54;;;;;;;16.67;8.88;;;;;;;4.82;79.44;102347.78;5049931;28;20497;-80
2023/12/16 08:23:20;;;;;;;18.92;9.02;;;;;;;5.00;78.70;102341.75;5049998;28;20040;-81
2023/12/16 08:25:46;;;;;;;18.80;8.98;;;;;;;5.16;79.49;102343.44;5048059;28;20053;-82
2023/12/16 08:28:12;;;;;;;19.95;10.10;;;;;;;5.32;79.07;102335.56;5050212;28;20032;-82
2023/12/16 08:30:37;;;;;;;15.80;9.07;;;;;;;5.47;78.74;102342.38;5050098;28;20078;-82
2023/12/16 08:33:03;;;;;;;17.93;8.50;;;;;;;5.58;78.88;102340.31;5050576;28;20079;-79
2023/12/16 08:35:29;;;;;;;17.88;8.60;;;;;;;5.68;78.25;102339.97;5049890;28;20021;-78
2023/12/16 08:37:55;;;;;;;14.30;7.47;;;;;;;5.80;78.29;102344.00;5049033;28;20040;-80
2023/12/16 08:40:21;;;;;;;16.77;8.15;;;;;;;5.92;77.99;102343.69;5049702;28;20033;-79
2023/12/16 08:42:46;;;;;;;18.05;9.43;;;;;;;6.03;78.54;102343.44;5049846;28;20024;-91
2023/12/16 08:45:12;;;;;;;16.50;8.20;;;;;;;6.08;78.65;102333.19;5049997;28;20051;-78
2023/12/16 08:47:38;;;;;;;17.17;9.02;;;;;;;6.15;78.43;102330.03;5049550;28;20052;-80
2023/12/16 08:50:05;;;;;;;15.33;8.47;;;;;;;6.27;78.34;102337.56;5050346;28;20052;-84
2023/12/16 08:52:31;;;;;;;17.10;8.85;;;;;;;6.39;78.71;102336.34;5050511;28;20017;-85
2023/12/16 08:54:57;;;;;;;15.13;7.60;;;;;;;6.50;79.15;102334.22;5050484;28;20025;-78
2023/12/16 08:57:26;;;;;;;14.88;7.80;;;;;;;6.59;79.03;102332.06;5049951;28;20041;-89
2023/12/16 08:59:51;;;;;;;16.20;8.38;;;;;;;6.68;79.24;102335.06;5049087;28;20057;-78
2023/12/16 09:02:16;;;;;;;16.30;8.50;;;;;;;6.75;79.16;102328.41;5050195;28;20112;-93
2023/12/16 09:04:42;;;;;;;16.63;8.07;;;;;;;6.86;79.46;102339.34;5049657;28;20104;-86
2023/12/16 09:07:11;;;;;;;15.00;7.95;;;;;;;6.98;79.75;102344.25;5049531;28;20031;-78
2023/12/16 09:09:38;;;;;;;13.53;7.50;;;;;;;7.12;79.54;102345.78;5079225;28;20048;-86
2023/12/16 09:12:05;;;;;;;13.30;7.00;;;;;;;7.24;79.13;102345.41;5050277;28;20047;-81
2023/12/16 09:14:30;;;;;;;12.43;6.18;;;;;;;7.29;79.57;102354.34;5049767;28;20493;-89
2023/12/16 09:16:56;;;;;;;12.80;5.87;;;;;;;7.37;79.29;102354.69;5051906;28;20108;-85
2023/12/16 09:19:22;;;;;;;13.05;6.40;;;;;;;7.46;79.48;102349.81;5053047;28;20166;-77
2023/12/16 09:21:48;;;;;;;15.25;7.40;;;;;;;7.56;79.46;102350.22;5049358;28;20040;-84
2023/12/16 09:24:14;;;;;;;12.50;6.57;;;;;;;7.63;79.11;102346.13;5051866;28;20497;-78
2023/12/16 09:26:39;;;;;;;12.88;6.20;;;;;;;7.74;79.02;102355.34;5048036;28;20048;-80
2023/12/16 09:29:05;;;;;;;14.47;6.67;;;;;;;7.74;79.31;102356.22;5049037;28;20048;-79
2023/12/16 09:31:31;;;;;;;12.30;6.45;;;;;;;7.80;79.18;102349.44;5048897;28;20040;-80
2023/12/16 09:33:57;;;;;;;10.87;6.10;;;;;;;7.85;79.24;102353.16;5048991;28;20044;-85
2023/12/16 09:36:26;;;;;;;13.13;7.28;;;;;;;7.95;79.42;102352.69;5049565;28;20557;-79
2023/12/16 09:38:54;;;;;;;10.80;5.97;;;;;;;8.02;79.33;102351.22;5047903;28;20029;-82
2023/12/16 09:41:23;;;;;;;11.68;5.68;;;;;;;8.11;79.22;102348.06;5048555;28;20067;-82
2023/12/16 09:43:54;;;;;;;10.98;5.88;;;;;;;8.20;79.26;102345.81;5048303;28;20056;-76
2023/12/16 09:46:23;;;;;;;11.30;5.47;;;;;;;8.29;79.04;102346.16;5049197;28;20070;-76
2023/12/16 09:48:53;;;;;;;9.57;5.05;;;;;;;8.42;78.68;102344.03;5047330;28;20033;-84
2023/12/16 09:51:22;;;;;;;7.75;3.90;;;;;;;8.46;78.75;102343.28;5048704;28;20394;-77
2023/12/16 09:53:51;;;;;;;8.18;3.97;;;;;;;8.52;77.94;102348.81;5048827;28;20171;-79
2023/12/16 09:56:18;;;;;;;9.57;4.05;;;;;;;8.59;78.16;102342.97;5048208;28;20041;-77
2023/12/16 09:58:46;;;;;;;9.70;4.20;;;;;;;8.61;77.88;102340.38;5048304;28;20041;-81
2023/12/16 10:01:12;;;;;;;8.05;3.80;;;;;;;8.60;78.22;102342.13;5048369;28;20094;-77
2023/12/16 10:03:39;;;;;;;9.82;3.80;;;;;;;8.69;78.26;102340.69;5048268;28;20496;-79
2023/12/16 10:06:06;;;;;;;8.15;3.25;;;;;;;8.78;78.00;102338.38;5048161;28;20044;-82
2023/12/16 10:08:32;;;;;;;7.50;3.10;;;;;;;8.87;77.49;102341.38;5048207;28;20029;-83
2023/12/16 10:10:59;;;;;;;7.87;3.20;;;;;;;8.91;77.33;102337.09;5048171;28;20025;-79
2023/12/16 10:13:25;;;;;;;7.32;3.22;;;;;;;9.00;76.32;102342.69;5048215;28;20479;-79
2023/12/16 10:15:51;;;;;;;7.47;3.00;;;;;;;9.07;76.63;102337.66;5046809;28;20036;-80
2023/12/16 10:18:17;;;;;;;8.00;2.90;;;;;;;9.14;76.69;102324.78;5048391;28;20029;-79
2023/12/16 10:20:43;;;;;;;6.65;2.85;;;;;;;9.26;76.04;102324.31;5048765;28;20044;-79
2023/12/16 10:23:08;;;;;;;5.93;2.40;;;;;;;9.33;76.04;102315.81;5049174;28;20041;-76
2023/12/16 10:25:34;;;;;;;6.22;2.53;;;;;;;9.40;75.52;102316.00;5048147;28;20132;-80
2023/12/16 10:28:03;;;;;;;7.20;2.50;;;;;;;9.46;75.49;102310.97;5051479;28;20516;-78
2023/12/16 10:30:30;;;;;;;6.60;2.80;;;;;;;9.60;74.88;102309.69;5053194;28;20036;-80
2023/12/16 10:32:56;;;;;;;6.13;2.50;;;;;;;9.65;75.34;102312.47;5052238;28;20048;-79
2023/12/16 10:35:23;;;;;;;8.77;3.17;;;;;;;9.75;75.12;102309.28;5052511;28;20040;-81
2023/12/16 10:37:50;;;;;;;7.40;2.43;;;;;;;9.89;75.25;102307.13;5052554;28;20072;-76
2023/12/16 10:40:16;;;;;;;6.45;2.70;;;;;;;10.05;74.57;102307.59;5052750;28;20065;-76
2023/12/16 10:42:42;;;;;;;9.95;2.63;;;;;;;10.20;74.34;102299.25;5051617;28;20168;-76
2023/12/16 10:45:11;;;;;;;6.22;2.58;;;;;;;10.28;74.24;102295.13;5052304;28;20021;-79
2023/12/16 10:47:37;;;;;;;10.03;2.40;;;;;;;10.43;73.12;102285.91;5052740;28;20112;-77
2023/12/16 10:50:04;;;;;;;5.43;1.77;;;;;;;10.45;73.18;102278.94;5051909;28;20051;-79
2023/12/16 10:52:41;;;;;;;6.30;1.60;;;;;;;10.51;72.09;102287.06;5052629;28;20037;-77
2023/12/16 10:55:16;;;;;;;5.13;1.98;;;;;;;10.57;71.69;102291.59;5052289;28;20032;-81
2023/12/16 10:57:47;;;;;;;7.15;1.98;;;;;;;10.58;67.90;102283.75;5052470;28;20141;-76
2023/12/16 11:00:19;;;;;;;6.77;1.50;;;;;;;10.61;71.39;102277.69;5052142;28;20041;-81
2023/12/16 11:03:04;;;;;;;6.95;2.10;;;;;;;10.68;70.99;102279.63;5051906;28;20989;-80
2023/12/16 11:05:34;;;;;;;8.10;1.90;;;;;;;10.77;70.45;102268.44;5044804;28;20029;-80
2023/12/16 11:08:04;;;;;;;7.75;1.65;;;;;;;10.89;69.47;102265.25;5052389;28;20048;-76
2023/12/16 11:10:33;;;;;;;4.60;1.50;;;;;;;10.90;69.61;102265.28;5051135;28;20184;-77
2023/12/16 11:13:03;;;;;;;6.27;1.67;;;;;;;10.97;69.41;102260.16;5052021;28;20104;-84
2023/12/16 11:15:34;;;;;;;7.28;1.60;;;;;;;11.05;69.36;102250.72;5051352;28;20040;-79
2023/12/16 11:18:05;;;;;;;6.72;2.00;;;;;;;11.20;68.77;102248.47;5051507;28;20436;-80
2023/12/16 11:20:43;;;;;;;5.35;1.73;;;;;;;11.28;69.18;102239.88;5051399;28;20029;-76